sensor_id;sensor_type;location;lat;lon;timestamp;P1;durP1;ratioP1;P2;durP2;ratioP2
23302;SDS011;11820;48.738;9.092;2023-03-01T00:01:04;12.90;;;9.57;;
23302;SDS011;11820;48.738;9.092;2023-03-01T00:03:32;14.63;;;9.87;;
23302;SDS011;11820;48.738;9.092;2023-03-01T00:05:58;11.97;;;9.03;;
23302;SDS011;11820;48.738;9.092;2023-03-01T00:08:24;12.27;;;9.80;;
23302;SDS011;11820;48.738;9.092;2023-03-01T00:10:59;14.23;;;10.30;;
23302;SDS011;11820;48.738;9.092;2023-03-01T00:13:32;16.03;;;11.27;;
23302;SDS011;11820;48.738;9.092;2023-03-01T00:15:58;11.37;;;9.97;;
23302;SDS011;11820;48.738;9.092;2023-03-01T00:18:23;13.90;;;9.37;;
23302;SDS011;11820;48.738;9.092;2023-03-01T00:20:50;11.73;;;9.10;;
23302;SDS011;11820;48.738;9.092;2023-03-01T00:23:16;13.57;;;9.57;;
23302;SDS011;11820;48.738;9.092;2023-03-01T00:25:42;11.70;;;10.00;;
23302;SDS011;11820;48.738;9.092;2023-03-01T00:28:08;11.10;;;9.27;;
23302;SDS011;11820;48.738;9.092;2023-03-01T00:30:33;13.30;;;9.83;;
23302;SDS011;11820;48.738;9.092;2023-03-01T00:32:58;12.13;;;9.77;;
23302;SDS011;11820;48.738;9.092;2023-03-01T00:35:24;11.20;;;9.57;;
23302;SDS011;11820;48.738;9.092;2023-03-01T00:37:49;14.80;;;10.20;;
23302;SDS011;11820;48.738;9.092;2023-03-01T00:40:23;12.93;;;10.07;;
23302;SDS011;11820;48.738;9.092;2023-03-01T00:42:49;12.07;;;9.53;;
23302;SDS011;11820;48.738;9.092;2023-03-01T00:45:15;14.43;;;10.20;;
23302;SDS011;11820;48.738;9.092;2023-03-01T00:47:40;13.30;;;9.50;;
23302;SDS011;11820;48.738;9.092;2023-03-01T00:50:06;12.83;;;9.87;;
23302;SDS011;11820;48.738;9.092;2023-03-01T00:52:32;11.53;;;9.60;;
23302;SDS011;11820;48.738;9.092;2023-03-01T00:54:57;13.43;;;10.40;;
23302;SDS011;11820;48.738;9.092;2023-03-01T00:57:23;15.30;;;10.00;;
23302;SDS011;11820;48.738;9.092;2023-03-01T00:59:48;12.73;;;9.70;;
23302;SDS011;11820;48.738;9.092;2023-03-01T01:02:14;13.97;;;10.20;;
23302;SDS011;11820;48.738;9.092;2023-03-01T01:04:39;14.37;;;10.73;;
23302;SDS011;11820;48.738;9.092;2023-03-01T01:07:04;15.70;;;10.27;;
23302;SDS011;11820;48.738;9.092;2023-03-01T01:09:30;12.73;;;10.43;;
23302;SDS011;11820;48.738;9.092;2023-03-01T01:11:56;12.73;;;10.23;;
23302;SDS011;11820;48.738;9.092;2023-03-01T01:14:21;10.60;;;9.30;;
23302;SDS011;11820;48.738;9.092;2023-03-01T01:16:46;12.90;;;10.77;;
23302;SDS011;11820;48.738;9.092;2023-03-01T01:19:12;13.50;;;10.03;;
23302;SDS011;11820;48.738;9.092;2023-03-01T01:21:38;12.93;;;10.37;;
23302;SDS011;11820;48.738;9.092;2023-03-01T01:24:04;13.10;;;10.37;;
23302;SDS011;11820;48.738;9.092;2023-03-01T01:26:31;13.70;;;10.83;;
23302;SDS011;11820;48.738;9.092;2023-03-01T01:28:58;13.03;;;10.17;;
23302;SDS011;11820;48.738;9.092;2023-03-01T01:31:24;15.97;;;10.67;;
23302;SDS011;11820;48.738;9.092;2023-03-01T01:33:51;14.43;;;10.80;;
23302;SDS011;11820;48.738;9.092;2023-03-01T01:36:17;13.37;;;10.73;;
23302;SDS011;11820;48.738;9.092;2023-03-01T01:38:42;15.83;;;11.73;;
23302;SDS011;11820;48.738;9.092;2023-03-01T01:41:08;15.60;;;11.00;;
23302;SDS011;11820;48.738;9.092;2023-03-01T01:43:46;14.70;;;11.37;;
23302;SDS011;11820;48.738;9.092;2023-03-01T01:46:28;14.03;;;10.87;;
23302;SDS011;11820;48.738;9.092;2023-03-01T01:49:01;14.80;;;10.80;;
23302;SDS011;11820;48.738;9.092;2023-03-01T01:51:36;15.30;;;11.30;;
23302;SDS011;11820;48.738;9.092;2023-03-01T01:54:24;16.43;;;12.17;;
23302;SDS011;11820;48.738;9.092;2023-03-01T01:56:56;17.43;;;13.07;;
23302;SDS011;11820;48.738;9.092;2023-03-01T01:59:27;16.40;;;12.77;;
23302;SDS011;11820;48.738;9.092;2023-03-01T02:01:55;15.37;;;12.60;;
23302;SDS011;11820;48.738;9.092;2023-03-01T02:04:24;18.07;;;13.43;;
23302;SDS011;11820;48.738;9.092;2023-03-01T02:07:14;17.80;;;11.77;;
23302;SDS011;11820;48.738;9.092;2023-03-01T02:09:45;16.90;;;13.37;;
23302;SDS011;11820;48.738;9.092;2023-03-01T02:12:12;16.00;;;13.27;;
23302;SDS011;11820;48.738;9.092;2023-03-01T02:14:40;17.40;;;12.87;;
23302;SDS011;11820;48.738;9.092;2023-03-01T02:17:05;16.60;;;13.37;;
23302;SDS011;11820;48.738;9.092;2023-03-01T02:19:34;19.07;;;13.13;;
23302;SDS011;11820;48.738;9.092;2023-03-01T02:22:23;15.73;;;12.40;;
23302;SDS011;11820;48.738;9.092;2023-03-01T02:30:35;16.37;;;13.37;;
23302;SDS011;11820;48.738;9.092;2023-03-01T02:33:02;18.53;;;13.13;;
23302;SDS011;11820;48.738;9.092;2023-03-01T02:35:30;18.03;;;12.57;;
23302;SDS011;11820;48.738;9.092;2023-03-01T02:37:59;17.77;;;13.20;;
23302;SDS011;11820;48.738;9.092;2023-03-01T02:40:27;16.53;;;13.70;;
23302;SDS011;11820;48.738;9.092;2023-03-01T02:42:55;18.77;;;13.57;;
23302;SDS011;11820;48.738;9.092;2023-03-01T02:45:22;16.90;;;14.60;;
23302;SDS011;11820;48.738;9.092;2023-03-01T02:47:48;19.13;;;13.97;;
23302;SDS011;11820;48.738;9.092;2023-03-01T02:55:41;17.80;;;13.80;;
23302;SDS011;11820;48.738;9.092;2023-03-01T02:58:06;18.93;;;14.73;;
23302;SDS011;11820;48.738;9.092;2023-03-01T03:00:34;17.80;;;13.87;;
23302;SDS011;11820;48.738;9.092;2023-03-01T03:03:10;17.37;;;14.00;;
23302;SDS011;11820;48.738;9.092;2023-03-01T03:05:38;20.47;;;13.73;;
23302;SDS011;11820;48.738;9.092;2023-03-01T03:08:03;21.50;;;15.60;;
23302;SDS011;11820;48.738;9.092;2023-03-01T03:10:30;17.40;;;14.07;;
23302;SDS011;11820;48.738;9.092;2023-03-01T03:12:59;18.47;;;14.80;;
23302;SDS011;11820;48.738;9.092;2023-03-01T03:15:28;19.07;;;14.87;;
23302;SDS011;11820;48.738;9.092;2023-03-01T03:17:54;18.63;;;14.40;;
23302;SDS011;11820;48.738;9.092;2023-03-01T03:20:21;19.67;;;13.87;;
23302;SDS011;11820;48.738;9.092;2023-03-01T03:22:50;19.83;;;14.67;;
23302;SDS011;11820;48.738;9.092;2023-03-01T03:25:17;17.43;;;14.17;;
23302;SDS011;11820;48.738;9.092;2023-03-01T03:27:44;17.17;;;14.47;;
23302;SDS011;11820;48.738;9.092;2023-03-01T03:30:12;22.30;;;14.40;;
23302;SDS011;11820;48.738;9.092;2023-03-01T03:32:42;17.83;;;13.30;;
23302;SDS011;11820;48.738;9.092;2023-03-01T03:35:17;15.47;;;13.17;;
23302;SDS011;11820;48.738;9.092;2023-03-01T03:37:44;16.53;;;13.73;;
23302;SDS011;11820;48.738;9.092;2023-03-01T03:40:35;15.83;;;12.90;;
23302;SDS011;11820;48.738;9.092;2023-03-01T03:43:03;18.40;;;14.07;;
23302;SDS011;11820;48.738;9.092;2023-03-01T03:45:30;17.83;;;13.83;;
23302;SDS011;11820;48.738;9.092;2023-03-01T03:47:58;16.87;;;13.37;;
23302;SDS011;11820;48.738;9.092;2023-03-01T03:50:27;18.53;;;14.10;;
23302;SDS011;11820;48.738;9.092;2023-03-01T03:52:52;20.03;;;15.27;;
23302;SDS011;11820;48.738;9.092;2023-03-01T03:55:18;21.20;;;15.30;;
23302;SDS011;11820;48.738;9.092;2023-03-01T03:57:44;17.13;;;14.33;;
23302;SDS011;11820;48.738;9.092;2023-03-01T04:00:16;18.53;;;14.23;;
23302;SDS011;11820;48.738;9.092;2023-03-01T04:02:43;19.73;;;15.30;;
23302;SDS011;11820;48.738;9.092;2023-03-01T04:05:10;20.23;;;15.13;;
23302;SDS011;11820;48.738;9.092;2023-03-01T04:07:37;22.70;;;15.40;;
23302;SDS011;11820;48.738;9.092;2023-03-01T04:10:06;22.90;;;15.87;;
23302;SDS011;11820;48.738;9.092;2023-03-01T04:12:35;19.97;;;15.40;;
23302;SDS011;11820;48.738;9.092;2023-03-01T04:15:00;20.23;;;14.93;;
23302;SDS011;11820;48.738;9.092;2023-03-01T04:17:26;21.20;;;15.40;;
23302;SDS011;11820;48.738;9.092;2023-03-01T04:19:52;19.83;;;15.17;;
23302;SDS011;11820;48.738;9.092;2023-03-01T04:22:17;20.57;;;15.73;;
23302;SDS011;11820;48.738;9.092;2023-03-01T04:24:44;19.83;;;14.50;;
23302;SDS011;11820;48.738;9.092;2023-03-01T04:27:10;24.13;;;15.20;;
23302;SDS011;11820;48.738;9.092;2023-03-01T04:29:36;21.10;;;16.17;;
23302;SDS011;11820;48.738;9.092;2023-03-01T04:32:01;19.37;;;15.30;;
23302;SDS011;11820;48.738;9.092;2023-03-01T04:34:28;18.40;;;14.87;;
23302;SDS011;11820;48.738;9.092;2023-03-01T04:36:53;22.00;;;14.97;;
23302;SDS011;11820;48.738;9.092;2023-03-01T04:39:18;18.67;;;14.83;;
23302;SDS011;11820;48.738;9.092;2023-03-01T04:41:44;18.83;;;14.50;;
23302;SDS011;11820;48.738;9.092;2023-03-01T04:44:09;20.03;;;15.43;;
23302;SDS011;11820;48.738;9.092;2023-03-01T04:46:35;20.87;;;15.10;;
23302;SDS011;11820;48.738;9.092;2023-03-01T04:49:01;20.00;;;15.10;;
23302;SDS011;11820;48.738;9.092;2023-03-01T04:51:27;20.67;;;15.60;;
23302;SDS011;11820;48.738;9.092;2023-03-01T04:53:53;19.87;;;15.60;;
23302;SDS011;11820;48.738;9.092;2023-03-01T04:56:19;21.53;;;15.53;;
23302;SDS011;11820;48.738;9.092;2023-03-01T04:58:44;20.90;;;15.83;;
23302;SDS011;11820;48.738;9.092;2023-03-01T05:01:11;22.13;;;15.93;;
23302;SDS011;11820;48.738;9.092;2023-03-01T05:03:42;21.67;;;15.77;;
23302;SDS011;11820;48.738;9.092;2023-03-01T05:06:15;20.10;;;16.03;;
23302;SDS011;11820;48.738;9.092;2023-03-01T05:08:43;21.73;;;16.70;;
23302;SDS011;11820;48.738;9.092;2023-03-01T05:11:08;20.13;;;15.67;;
23302;SDS011;11820;48.738;9.092;2023-03-01T05:13:35;22.17;;;16.43;;
23302;SDS011;11820;48.738;9.092;2023-03-01T05:16:02;20.97;;;15.07;;
23302;SDS011;11820;48.738;9.092;2023-03-01T05:18:29;21.20;;;15.43;;
23302;SDS011;11820;48.738;9.092;2023-03-01T05:20:56;22.17;;;16.27;;
23302;SDS011;11820;48.738;9.092;2023-03-01T05:23:28;21.10;;;15.60;;
23302;SDS011;11820;48.738;9.092;2023-03-01T05:25:57;20.93;;;15.27;;
23302;SDS011;11820;48.738;9.092;2023-03-01T05:28:23;22.60;;;17.33;;
23302;SDS011;11820;48.738;9.092;2023-03-01T05:30:48;21.63;;;16.43;;
23302;SDS011;11820;48.738;9.092;2023-03-01T05:33:16;24.80;;;17.13;;
23302;SDS011;11820;48.738;9.092;2023-03-01T05:35:42;20.70;;;16.63;;
23302;SDS011;11820;48.738;9.092;2023-03-01T05:38:09;26.03;;;18.20;;
23302;SDS011;11820;48.738;9.092;2023-03-01T05:40:38;23.10;;;17.30;;
23302;SDS011;11820;48.738;9.092;2023-03-01T05:43:04;22.23;;;17.17;;
23302;SDS011;11820;48.738;9.092;2023-03-01T05:45:30;22.57;;;17.40;;
23302;SDS011;11820;48.738;9.092;2023-03-01T05:47:57;21.87;;;16.77;;
23302;SDS011;11820;48.738;9.092;2023-03-01T05:50:26;28.20;;;17.10;;
23302;SDS011;11820;48.738;9.092;2023-03-01T05:52:59;23.07;;;16.80;;
23302;SDS011;11820;48.738;9.092;2023-03-01T05:55:30;23.07;;;16.90;;
23302;SDS011;11820;48.738;9.092;2023-03-01T05:58:00;22.27;;;17.87;;
23302;SDS011;11820;48.738;9.092;2023-03-01T06:00:27;24.37;;;18.53;;
23302;SDS011;11820;48.738;9.092;2023-03-01T06:02:54;24.23;;;18.57;;
23302;SDS011;11820;48.738;9.092;2023-03-01T06:05:20;21.43;;;15.80;;
23302;SDS011;11820;48.738;9.092;2023-03-01T06:07:45;21.50;;;17.47;;
23302;SDS011;11820;48.738;9.092;2023-03-01T06:10:12;23.50;;;17.13;;
23302;SDS011;11820;48.738;9.092;2023-03-01T06:12:38;25.37;;;17.47;;
23302;SDS011;11820;48.738;9.092;2023-03-01T06:15:06;23.60;;;17.53;;
23302;SDS011;11820;48.738;9.092;2023-03-01T06:17:33;26.40;;;17.07;;
23302;SDS011;11820;48.738;9.092;2023-03-01T06:20:06;23.87;;;17.77;;
23302;SDS011;11820;48.738;9.092;2023-03-01T06:22:36;24.67;;;16.87;;
23302;SDS011;11820;48.738;9.092;2023-03-01T06:25:02;21.43;;;16.40;;
23302;SDS011;11820;48.738;9.092;2023-03-01T06:27:28;25.67;;;16.57;;
23302;SDS011;11820;48.738;9.092;2023-03-01T06:29:53;29.80;;;17.37;;
23302;SDS011;11820;48.738;9.092;2023-03-01T06:32:19;20.80;;;16.57;;
23302;SDS011;11820;48.738;9.092;2023-03-01T06:34:44;22.57;;;17.03;;
23302;SDS011;11820;48.738;9.092;2023-03-01T06:37:10;22.80;;;16.80;;
23302;SDS011;11820;48.738;9.092;2023-03-01T06:39:35;25.30;;;16.80;;
23302;SDS011;11820;48.738;9.092;2023-03-01T06:42:00;23.10;;;17.17;;
23302;SDS011;11820;48.738;9.092;2023-03-01T06:44:26;25.13;;;19.30;;
23302;SDS011;11820;48.738;9.092;2023-03-01T06:46:51;24.43;;;18.07;;
23302;SDS011;11820;48.738;9.092;2023-03-01T06:49:17;24.83;;;18.20;;
23302;SDS011;11820;48.738;9.092;2023-03-01T06:51:42;22.53;;;17.50;;
23302;SDS011;11820;48.738;9.092;2023-03-01T06:54:08;22.37;;;17.73;;
23302;SDS011;11820;48.738;9.092;2023-03-01T06:56:34;23.47;;;17.77;;
23302;SDS011;11820;48.738;9.092;2023-03-01T06:58:59;22.00;;;17.90;;
23302;SDS011;11820;48.738;9.092;2023-03-01T07:01:25;24.63;;;17.60;;
23302;SDS011;11820;48.738;9.092;2023-03-01T07:03:50;24.37;;;18.07;;
23302;SDS011;11820;48.738;9.092;2023-03-01T07:06:15;23.97;;;17.80;;
23302;SDS011;11820;48.738;9.092;2023-03-01T07:08:42;22.00;;;16.33;;
23302;SDS011;11820;48.738;9.092;2023-03-01T07:11:08;24.47;;;17.53;;
23302;SDS011;11820;48.738;9.092;2023-03-01T07:13:33;23.83;;;16.63;;
23302;SDS011;11820;48.738;9.092;2023-03-01T07:15:58;25.50;;;21.80;;
23302;SDS011;11820;48.738;9.092;2023-03-01T07:18:24;25.23;;;18.63;;
23302;SDS011;11820;48.738;9.092;2023-03-01T07:20:49;25.40;;;17.93;;
23302;SDS011;11820;48.738;9.092;2023-03-01T07:23:15;29.60;;;18.57;;
23302;SDS011;11820;48.738;9.092;2023-03-01T07:25:40;22.40;;;17.97;;
23302;SDS011;11820;48.738;9.092;2023-03-01T07:28:05;23.67;;;17.93;;
23302;SDS011;11820;48.738;9.092;2023-03-01T07:30:31;25.23;;;18.30;;
23302;SDS011;11820;48.738;9.092;2023-03-01T07:32:57;25.27;;;17.63;;
23302;SDS011;11820;48.738;9.092;2023-03-01T07:35:23;23.00;;;18.73;;
23302;SDS011;11820;48.738;9.092;2023-03-01T07:37:50;23.67;;;18.73;;
23302;SDS011;11820;48.738;9.092;2023-03-01T07:40:15;24.57;;;18.17;;
23302;SDS011;11820;48.738;9.092;2023-03-01T07:42:41;27.37;;;19.50;;
23302;SDS011;11820;48.738;9.092;2023-03-01T07:45:06;25.95;;;19.77;;
23302;SDS011;11820;48.738;9.092;2023-03-01T07:47:32;24.23;;;19.43;;
23302;SDS011;11820;48.738;9.092;2023-03-01T07:49:57;27.83;;;18.63;;
23302;SDS011;11820;48.738;9.092;2023-03-01T07:52:23;27.73;;;18.90;;
23302;SDS011;11820;48.738;9.092;2023-03-01T07:54:48;26.83;;;18.93;;
23302;SDS011;11820;48.738;9.092;2023-03-01T07:57:14;25.33;;;18.60;;
23302;SDS011;11820;48.738;9.092;2023-03-01T07:59:39;25.80;;;18.57;;
23302;SDS011;11820;48.738;9.092;2023-03-01T08:02:05;25.07;;;18.80;;
23302;SDS011;11820;48.738;9.092;2023-03-01T08:04:30;27.77;;;18.53;;
23302;SDS011;11820;48.738;9.092;2023-03-01T08:06:58;31.20;;;18.43;;
23302;SDS011;11820;48.738;9.092;2023-03-01T08:09:23;27.63;;;19.07;;
23302;SDS011;11820;48.738;9.092;2023-03-01T08:11:49;26.40;;;17.43;;
23302;SDS011;11820;48.738;9.092;2023-03-01T08:14:14;28.13;;;20.67;;
23302;SDS011;11820;48.738;9.092;2023-03-01T08:16:40;23.53;;;18.77;;
23302;SDS011;11820;48.738;9.092;2023-03-01T08:19:06;25.13;;;17.97;;
23302;SDS011;11820;48.738;9.092;2023-03-01T08:21:32;25.60;;;18.53;;
23302;SDS011;11820;48.738;9.092;2023-03-01T08:23:59;22.80;;;18.20;;
23302;SDS011;11820;48.738;9.092;2023-03-01T08:26:25;26.97;;;18.30;;
23302;SDS011;11820;48.738;9.092;2023-03-01T08:28:51;21.17;;;17.17;;
23302;SDS011;11820;48.738;9.092;2023-03-01T08:31:35;25.07;;;17.33;;
23302;SDS011;11820;48.738;9.092;2023-03-01T08:34:05;25.17;;;18.03;;
23302;SDS011;11820;48.738;9.092;2023-03-01T08:36:34;22.73;;;17.40;;
23302;SDS011;11820;48.738;9.092;2023-03-01T08:39:02;22.27;;;17.47;;
23302;SDS011;11820;48.738;9.092;2023-03-01T08:41:27;24.23;;;17.80;;
23302;SDS011;11820;48.738;9.092;2023-03-01T08:43:53;25.23;;;18.30;;
23302;SDS011;11820;48.738;9.092;2023-03-01T08:46:23;24.17;;;17.23;;
23302;SDS011;11820;48.738;9.092;2023-03-01T08:48:52;22.27;;;17.37;;
23302;SDS011;11820;48.738;9.092;2023-03-01T08:51:17;22.97;;;18.60;;
23302;SDS011;11820;48.738;9.092;2023-03-01T08:53:45;29.13;;;18.70;;
23302;SDS011;11820;48.738;9.092;2023-03-01T08:56:10;25.50;;;18.57;;
23302;SDS011;11820;48.738;9.092;2023-03-01T08:58:36;23.47;;;18.30;;
23302;SDS011;11820;48.738;9.092;2023-03-01T09:01:12;26.67;;;21.30;;
23302;SDS011;11820;48.738;9.092;2023-03-01T09:03:39;23.23;;;18.70;;
23302;SDS011;11820;48.738;9.092;2023-03-01T09:06:05;25.63;;;19.60;;
23302;SDS011;11820;48.738;9.092;2023-03-01T09:08:34;22.60;;;17.93;;
23302;SDS011;11820;48.738;9.092;2023-03-01T09:11:01;23.80;;;16.87;;
23302;SDS011;11820;48.738;9.092;2023-03-01T09:13:27;22.23;;;18.13;;
23302;SDS011;11820;48.738;9.092;2023-03-01T09:15:55;23.80;;;17.43;;
23302;SDS011;11820;48.738;9.092;2023-03-01T09:18:21;24.07;;;18.80;;
23302;SDS011;11820;48.738;9.092;2023-03-01T09:20:46;22.33;;;18.00;;
23302;SDS011;11820;48.738;9.092;2023-03-01T09:23:11;26.73;;;17.93;;
23302;SDS011;11820;48.738;9.092;2023-03-01T09:25:37;25.43;;;18.63;;
23302;SDS011;11820;48.738;9.092;2023-03-01T09:28:02;21.13;;;17.23;;
23302;SDS011;11820;48.738;9.092;2023-03-01T09:30:28;21.23;;;18.10;;
23302;SDS011;11820;48.738;9.092;2023-03-01T09:32:53;23.77;;;18.70;;
23302;SDS011;11820;48.738;9.092;2023-03-01T09:35:21;22.87;;;17.53;;
23302;SDS011;11820;48.738;9.092;2023-03-01T09:37:47;22.73;;;18.00;;
23302;SDS011;11820;48.738;9.092;2023-03-01T09:40:15;23.95;;;21.30;;
23302;SDS011;11820;48.738;9.092;2023-03-01T09:42:51;25.10;;;18.97;;
23302;SDS011;11820;48.738;9.092;2023-03-01T09:45:24;24.00;;;19.07;;
23302;SDS011;11820;48.738;9.092;2023-03-01T09:47:56;22.57;;;18.77;;
23302;SDS011;11820;48.738;9.092;2023-03-01T09:50:22;23.37;;;18.40;;
23302;SDS011;11820;48.738;9.092;2023-03-01T09:53:05;23.97;;;18.27;;
23302;SDS011;11820;48.738;9.092;2023-03-01T09:58:31;23.47;;;17.13;;
23302;SDS011;11820;48.738;9.092;2023-03-01T10:01:02;25.90;;;18.00;;
23302;SDS011;11820;48.738;9.092;2023-03-01T10:04:05;22.97;;;17.27;;
23302;SDS011;11820;48.738;9.092;2023-03-01T10:09:52;23.60;;;17.60;;
23302;SDS011;11820;48.738;9.092;2023-03-01T10:12:18;23.40;;;18.33;;
23302;SDS011;11820;48.738;9.092;2023-03-01T10:20:05;23.70;;;17.23;;
23302;SDS011;11820;48.738;9.092;2023-03-01T10:22:40;21.73;;;16.90;;
23302;SDS011;11820;48.738;9.092;2023-03-01T10:25:06;18.53;;;15.50;;
23302;SDS011;11820;48.738;9.092;2023-03-01T10:27:46;26.63;;;17.00;;
23302;SDS011;11820;48.738;9.092;2023-03-01T10:30:29;21.27;;;16.60;;
23302;SDS011;11820;48.738;9.092;2023-03-01T10:33:01;19.70;;;15.77;;
23302;SDS011;11820;48.738;9.092;2023-03-01T10:35:32;20.00;;;16.57;;
23302;SDS011;11820;48.738;9.092;2023-03-01T10:38:11;22.80;;;16.67;;
23302;SDS011;11820;48.738;9.092;2023-03-01T10:43:19;17.43;;;15.60;;
23302;SDS011;11820;48.738;9.092;2023-03-01T10:45:45;19.97;;;16.30;;
23302;SDS011;11820;48.738;9.092;2023-03-01T10:48:20;21.43;;;16.70;;
23302;SDS011;11820;48.738;9.092;2023-03-01T10:53:24;18.73;;;15.57;;
23302;SDS011;11820;48.738;9.092;2023-03-01T10:58:38;18.20;;;16.30;;
23302;SDS011;11820;48.738;9.092;2023-03-01T11:01:27;19.37;;;16.83;;
23302;SDS011;11820;48.738;9.092;2023-03-01T11:06:30;21.60;;;16.63;;
23302;SDS011;11820;48.738;9.092;2023-03-01T11:08:55;18.37;;;15.67;;
23302;SDS011;11820;48.738;9.092;2023-03-01T11:11:30;21.43;;;16.60;;
23302;SDS011;11820;48.738;9.092;2023-03-01T11:13:59;17.07;;;15.27;;
23302;SDS011;11820;48.738;9.092;2023-03-01T11:21:43;17.07;;;15.33;;
23302;SDS011;11820;48.738;9.092;2023-03-01T11:24:14;18.90;;;16.53;;
23302;SDS011;11820;48.738;9.092;2023-03-01T11:26:43;17.43;;;15.63;;
23302;SDS011;11820;48.738;9.092;2023-03-01T11:29:26;19.00;;;15.13;;
23302;SDS011;11820;48.738;9.092;2023-03-01T11:31:56;18.93;;;15.40;;
23302;SDS011;11820;48.738;9.092;2023-03-01T11:37:12;16.63;;;14.93;;
23302;SDS011;11820;48.738;9.092;2023-03-01T11:42:27;17.07;;;15.27;;
23302;SDS011;11820;48.738;9.092;2023-03-01T11:45:06;17.53;;;15.33;;
23302;SDS011;11820;48.738;9.092;2023-03-01T11:50:16;17.73;;;15.10;;
23302;SDS011;11820;48.738;9.092;2023-03-01T11:58:54;19.27;;;16.43;;
23302;SDS011;11820;48.738;9.092;2023-03-01T12:07:33;16.93;;;15.13;;
23302;SDS011;11820;48.738;9.092;2023-03-01T12:10:18;16.83;;;15.13;;
23302;SDS011;11820;48.738;9.092;2023-03-01T12:18:10;19.40;;;16.63;;
23302;SDS011;11820;48.738;9.092;2023-03-01T12:21:21;17.53;;;15.73;;
23302;SDS011;11820;48.738;9.092;2023-03-01T12:26:34;16.50;;;14.87;;
23302;SDS011;11820;48.738;9.092;2023-03-01T12:43:10;19.87;;;14.77;;
23302;SDS011;11820;48.738;9.092;2023-03-01T12:48:36;17.13;;;14.87;;
23302;SDS011;11820;48.738;9.092;2023-03-01T12:51:08;15.70;;;14.13;;
23302;SDS011;11820;48.738;9.092;2023-03-01T12:53:41;17.67;;;13.90;;
23302;SDS011;11820;48.738;9.092;2023-03-01T12:56:12;16.20;;;13.83;;
23302;SDS011;11820;48.738;9.092;2023-03-01T13:18:01;15.67;;;14.03;;
23302;SDS011;11820;48.738;9.092;2023-03-01T13:23:11;13.80;;;12.33;;
23302;SDS011;11820;48.738;9.092;2023-03-01T13:33:41;14.10;;;12.60;;
23302;SDS011;11820;48.738;9.092;2023-03-01T13:36:07;14.47;;;11.77;;
23302;SDS011;11820;48.738;9.092;2023-03-01T13:41:02;13.00;;;11.67;;
23302;SDS011;11820;48.738;9.092;2023-03-01T13:43:29;15.53;;;13.33;;
23302;SDS011;11820;48.738;9.092;2023-03-01T13:46:00;15.60;;;13.03;;
23302;SDS011;11820;48.738;9.092;2023-03-01T13:48:32;15.83;;;13.83;;
23302;SDS011;11820;48.738;9.092;2023-03-01T13:51:08;16.30;;;14.50;;
23302;SDS011;11820;48.738;9.092;2023-03-01T13:53:37;16.17;;;14.33;;
23302;SDS011;11820;48.738;9.092;2023-03-01T13:56:09;15.30;;;13.50;;
23302;SDS011;11820;48.738;9.092;2023-03-01T14:01:26;17.30;;;14.93;;
23302;SDS011;11820;48.738;9.092;2023-03-01T14:04:01;20.07;;;15.23;;
23302;SDS011;11820;48.738;9.092;2023-03-01T14:06:32;16.23;;;14.53;;
23302;SDS011;11820;48.738;9.092;2023-03-01T14:09:20;17.40;;;15.57;;
23302;SDS011;11820;48.738;9.092;2023-03-01T14:12:04;17.03;;;15.23;;
23302;SDS011;11820;48.738;9.092;2023-03-01T14:19:55;18.07;;;15.77;;
23302;SDS011;11820;48.738;9.092;2023-03-01T14:22:25;16.63;;;14.87;;
23302;SDS011;11820;48.738;9.092;2023-03-01T14:24:56;17.23;;;15.20;;
23302;SDS011;11820;48.738;9.092;2023-03-01T14:27:25;19.03;;;15.60;;
23302;SDS011;11820;48.738;9.092;2023-03-01T14:30:35;17.07;;;15.23;;
23302;SDS011;11820;48.738;9.092;2023-03-01T14:32:55;17.07;;;14.60;;
23302;SDS011;11820;48.738;9.092;2023-03-01T14:35:35;15.73;;;13.83;;
23302;SDS011;11820;48.738;9.092;2023-03-01T14:38:01;19.17;;;16.30;;
23302;SDS011;11820;48.738;9.092;2023-03-01T14:40:28;18.40;;;16.43;;
23302;SDS011;11820;48.738;9.092;2023-03-01T14:42:57;19.67;;;16.37;;
23302;SDS011;11820;48.738;9.092;2023-03-01T14:45:25;20.37;;;16.20;;
23302;SDS011;11820;48.738;9.092;2023-03-01T14:47:52;18.70;;;16.00;;
23302;SDS011;11820;48.738;9.092;2023-03-01T14:50:27;18.63;;;16.73;;
23302;SDS011;11820;48.738;9.092;2023-03-01T14:52:55;18.50;;;16.43;;
23302;SDS011;11820;48.738;9.092;2023-03-01T14:57:59;19.13;;;17.13;;
23302;SDS011;11820;48.738;9.092;2023-03-01T15:00:29;21.90;;;16.33;;
23302;SDS011;11820;48.738;9.092;2023-03-01T15:03:00;19.63;;;16.47;;
23302;SDS011;11820;48.738;9.092;2023-03-01T15:05:34;17.33;;;15.50;;
23302;SDS011;11820;48.738;9.092;2023-03-01T15:08:01;19.67;;;16.50;;
23302;SDS011;11820;48.738;9.092;2023-03-01T15:10:29;19.07;;;16.83;;
23302;SDS011;11820;48.738;9.092;2023-03-01T15:12:56;18.17;;;16.27;;
23302;SDS011;11820;48.738;9.092;2023-03-01T15:15:35;20.87;;;17.27;;
23302;SDS011;11820;48.738;9.092;2023-03-01T15:18:12;19.10;;;16.87;;
23302;SDS011;11820;48.738;9.092;2023-03-01T15:20:38;19.13;;;16.97;;
23302;SDS011;11820;48.738;9.092;2023-03-01T15:23:04;20.40;;;15.80;;
23302;SDS011;11820;48.738;9.092;2023-03-01T15:25:30;18.83;;;16.13;;
23302;SDS011;11820;48.738;9.092;2023-03-01T15:27:58;21.27;;;17.47;;
23302;SDS011;11820;48.738;9.092;2023-03-01T15:30:34;23.77;;;18.17;;
23302;SDS011;11820;48.738;9.092;2023-03-01T15:33:47;21.90;;;17.97;;
23302;SDS011;11820;48.738;9.092;2023-03-01T15:35:48;23.63;;;17.43;;
23302;SDS011;11820;48.738;9.092;2023-03-01T15:40:55;18.43;;;16.10;;
23302;SDS011;11820;48.738;9.092;2023-03-01T15:43:38;19.53;;;16.90;;
23302;SDS011;11820;48.738;9.092;2023-03-01T15:46:13;21.13;;;17.70;;
23302;SDS011;11820;48.738;9.092;2023-03-01T15:48:46;19.30;;;17.13;;
23302;SDS011;11820;48.738;9.092;2023-03-01T15:51:14;18.17;;;16.20;;
23302;SDS011;11820;48.738;9.092;2023-03-01T15:53:41;21.20;;;17.30;;
23302;SDS011;11820;48.738;9.092;2023-03-01T15:56:12;18.43;;;15.30;;
23302;SDS011;11820;48.738;9.092;2023-03-01T15:58:37;19.43;;;16.60;;
23302;SDS011;11820;48.738;9.092;2023-03-01T16:01:02;20.00;;;17.23;;
23302;SDS011;11820;48.738;9.092;2023-03-01T16:03:33;18.53;;;16.63;;
23302;SDS011;11820;48.738;9.092;2023-03-01T16:05:58;19.17;;;16.63;;
23302;SDS011;11820;48.738;9.092;2023-03-01T16:08:24;20.03;;;16.67;;
23302;SDS011;11820;48.738;9.092;2023-03-01T16:10:49;22.23;;;17.03;;
23302;SDS011;11820;48.738;9.092;2023-03-01T16:13:16;18.90;;;16.17;;
23302;SDS011;11820;48.738;9.092;2023-03-01T16:15:42;18.70;;;16.57;;
23302;SDS011;11820;48.738;9.092;2023-03-01T16:18:08;20.10;;;17.70;;
23302;SDS011;11820;48.738;9.092;2023-03-01T16:20:35;22.03;;;16.40;;
23302;SDS011;11820;48.738;9.092;2023-03-01T16:23:03;20.00;;;16.10;;
23302;SDS011;11820;48.738;9.092;2023-03-01T16:25:31;22.57;;;16.77;;
23302;SDS011;11820;48.738;9.092;2023-03-01T16:27:57;19.33;;;15.77;;
23302;SDS011;11820;48.738;9.092;2023-03-01T16:30:25;23.47;;;16.83;;
23302;SDS011;11820;48.738;9.092;2023-03-01T16:32:50;18.87;;;16.03;;
23302;SDS011;11820;48.738;9.092;2023-03-01T16:35:17;19.23;;;15.03;;
23302;SDS011;11820;48.738;9.092;2023-03-01T16:37:44;20.13;;;16.23;;
23302;SDS011;11820;48.738;9.092;2023-03-01T16:43:08;22.37;;;16.60;;